createdAt,value
2018-07-10T00:00:12.798Z,1018.32
2018-07-10T00:00:38.376Z,1018.32
2018-07-10T00:01:03.932Z,1018.29
2018-07-10T00:01:29.503Z,1018.34
2018-07-10T00:01:55.092Z,1018.3
2018-07-10T00:02:20.637Z,1018.29
2018-07-10T00:02:46.248Z,1018.33
2018-07-10T00:03:11.811Z,1018.31
2018-07-10T00:03:37.388Z,1018.26
2018-07-10T00:04:02.958Z,1018.27
2018-07-10T00:04:28.518Z,1018.25
2018-07-10T00:04:54.077Z,1018.26
2018-07-10T00:05:19.659Z,1018.27
2018-07-10T00:05:45.228Z,1018.21
2018-07-10T00:06:10.789Z,1018.24
2018-07-10T00:06:36.389Z,1018.2
2018-07-10T00:07:01.951Z,1018.21
2018-07-10T00:07:27.536Z,1018.2
2018-07-10T00:07:53.108Z,1018.19
2018-07-10T00:08:18.685Z,1018.23
2018-07-10T00:08:44.255Z,1018.22
2018-07-10T00:09:09.839Z,1018.19
2018-07-10T00:09:35.412Z,1018.21
2018-07-10T00:10:00.983Z,1018.22
2018-07-10T00:10:26.568Z,1018.2
2018-07-10T00:10:52.165Z,1018.22
2018-07-10T00:11:17.712Z,1018.21
2018-07-10T00:11:43.299Z,1018.23
2018-07-10T00:12:08.918Z,1018.2
2018-07-10T00:12:34.420Z,1018.2
2018-07-10T00:13:00.029Z,1018.21
2018-07-10T00:13:25.584Z,1018.23
2018-07-10T00:13:51.164Z,1018.21
2018-07-10T00:14:16.767Z,1018.17
2018-07-10T00:14:42.321Z,1018.22
2018-07-10T00:15:07.901Z,1018.19
2018-07-10T00:15:33.484Z,1018.16
2018-07-10T00:15:59.042Z,1018.17
2018-07-10T00:16:24.650Z,1018.14
2018-07-10T00:16:50.229Z,1018.11
2018-07-10T00:17:15.804Z,1018.1
2018-07-10T00:17:41.384Z,1018.15
2018-07-10T00:18:06.972Z,1018.13
2018-07-10T00:18:32.560Z,1018.11
2018-07-10T00:18:58.121Z,1018.1
2018-07-10T00:19:23.694Z,1018.07
2018-07-10T00:19:49.252Z,1018.12
2018-07-10T00:20:14.904Z,1018.13
2018-07-10T00:20:40.458Z,1018.16
2018-07-10T00:21:06.049Z,1018.13
2018-07-10T00:21:31.603Z,1018.16
2018-07-10T00:21:57.192Z,1018.19
2018-07-10T00:22:22.778Z,1018.19
2018-07-10T00:22:48.360Z,1018.13
2018-07-10T00:23:13.929Z,1018.12
2018-07-10T00:23:39.512Z,1018.12
2018-07-10T00:24:05.075Z,1018.09
2018-07-10T00:24:30.688Z,1018.1
2018-07-10T00:24:56.272Z,1018.08
2018-07-10T00:25:21.847Z,1018.11
2018-07-10T00:25:47.408Z,1018.08
2018-07-10T00:26:13.012Z,1018.05
2018-07-10T00:26:38.578Z,1018.01
2018-07-10T00:27:04.158Z,1018.02
2018-07-10T00:27:29.738Z,1018.03
2018-07-10T00:27:55.300Z,1018.01
2018-07-10T00:28:20.886Z,1018.02
2018-07-10T00:28:46.456Z,1017.98
2018-07-10T00:29:12.042Z,1018.01
2018-07-10T00:29:37.608Z,1018
2018-07-10T00:30:03.177Z,1018
2018-07-10T00:30:28.762Z,1017.98
2018-07-10T00:30:54.356Z,1017.97
2018-07-10T00:31:19.940Z,1017.96
2018-07-10T00:31:45.501Z,1017.98
2018-07-10T00:32:11.085Z,1017.96
2018-07-10T00:32:36.648Z,1017.93
2018-07-10T00:33:02.257Z,1017.92
2018-07-10T00:33:27.826Z,1017.94
2018-07-10T00:33:53.386Z,1017.89
2018-07-10T00:34:18.967Z,1017.9
2018-07-10T00:34:44.529Z,1017.91
2018-07-10T00:35:10.094Z,1017.88
2018-07-10T00:35:35.656Z,1017.88
2018-07-10T00:36:01.256Z,1017.87
2018-07-10T00:36:26.810Z,1017.85
2018-07-10T00:36:52.368Z,1017.81
2018-07-10T00:37:17.946Z,1017.82
2018-07-10T00:37:43.519Z,1017.78
2018-07-10T00:38:09.076Z,1017.79
2018-07-10T00:38:34.652Z,1017.78
2018-07-10T00:39:00.372Z,1017.79
2018-07-10T00:39:25.985Z,1017.76
2018-07-10T00:39:51.592Z,1017.78
2018-07-10T00:40:17.172Z,1017.77
2018-07-10T00:40:42.732Z,1017.82
2018-07-10T00:41:08.294Z,1017.86
2018-07-10T00:41:33.870Z,1017.78
2018-07-10T00:41:59.450Z,1017.77
2018-07-10T00:42:25.030Z,1017.81
2018-07-10T00:42:50.617Z,1017.78
2018-07-10T00:43:16.199Z,1017.79
2018-07-10T00:43:41.772Z,1017.81
2018-07-10T00:44:07.352Z,1017.8
2018-07-10T00:44:32.922Z,1017.82
2018-07-10T00:44:58.495Z,1017.82
2018-07-10T00:45:24.075Z,1017.81
2018-07-10T00:45:49.649Z,1017.83
2018-07-10T00:46:15.286Z,1017.79
2018-07-10T00:46:40.837Z,1017.83
2018-07-10T00:47:06.384Z,1017.81
2018-07-10T00:47:31.945Z,1017.83
2018-07-10T00:47:57.528Z,1017.85
2018-07-10T00:48:23.095Z,1017.83
2018-07-10T00:48:48.668Z,1017.86
2018-07-10T00:49:14.249Z,1017.85
2018-07-10T00:49:39.850Z,1017.88
2018-07-10T00:50:05.429Z,1017.92
2018-07-10T00:50:30.987Z,1017.92
2018-07-10T00:50:56.618Z,1017.92
2018-07-10T00:51:22.205Z,1017.93
2018-07-10T00:51:47.762Z,1017.94
2018-07-10T00:52:13.341Z,1017.9
2018-07-10T00:52:38.908Z,1017.91
2018-07-10T00:53:04.463Z,1017.94
2018-07-10T00:53:30.040Z,1017.91
2018-07-10T00:53:55.641Z,1017.93
2018-07-10T00:54:21.229Z,1017.95
2018-07-10T00:54:46.812Z,1017.9
2018-07-10T00:55:12.383Z,1017.92
2018-07-10T00:55:37.967Z,1017.9
2018-07-10T00:56:03.538Z,1017.88
2018-07-10T00:56:29.142Z,1017.88
2018-07-10T00:56:54.726Z,1017.84
2018-07-10T00:57:20.295Z,1017.85
2018-07-10T00:57:45.856Z,1017.85
2018-07-10T00:58:11.431Z,1017.83
2018-07-10T00:58:37.001Z,1017.82
2018-07-10T00:59:02.600Z,1017.8
2018-07-10T00:59:28.175Z,1017.81
2018-07-10T00:59:53.767Z,1017.77
2018-07-10T01:00:19.340Z,1017.78
2018-07-10T01:00:44.911Z,1017.75
2018-07-10T01:01:10.492Z,1017.77
2018-07-10T01:01:36.067Z,1017.78
2018-07-10T01:02:01.631Z,1017.76
2018-07-10T01:02:27.223Z,1017.76
2018-07-10T01:02:52.782Z,1017.77
2018-07-10T01:03:18.365Z,1017.73
2018-07-10T01:03:43.918Z,1017.73
2018-07-10T01:04:09.482Z,1017.72
2018-07-10T01:04:35.061Z,1017.73
2018-07-10T01:05:00.644Z,1017.72
2018-07-10T01:05:26.182Z,1017.7
2018-07-10T01:05:51.763Z,1017.69
2018-07-10T01:06:17.335Z,1017.72
2018-07-10T01:06:42.923Z,1017.68
2018-07-10T01:07:08.487Z,1017.66
2018-07-10T01:07:34.049Z,1017.65
2018-07-10T01:07:59.610Z,1017.66
2018-07-10T01:08:25.208Z,1017.68
2018-07-10T01:08:50.772Z,1017.66
2018-07-10T01:09:16.345Z,1017.67
2018-07-10T01:09:41.905Z,1017.65
2018-07-10T01:10:07.456Z,1017.6
2018-07-10T01:10:33.047Z,1017.57
2018-07-10T01:10:58.625Z,1017.58
2018-07-10T01:11:24.214Z,1017.59
2018-07-10T01:11:49.777Z,1017.59
2018-07-10T01:12:15.339Z,1017.58
2018-07-10T01:12:40.917Z,1017.6
2018-07-10T01:13:06.524Z,1017.58
2018-07-10T01:13:32.123Z,1017.54
2018-07-10T01:13:57.692Z,1017.57
2018-07-10T01:14:23.254Z,1017.55
2018-07-10T01:14:48.825Z,1017.52
2018-07-10T01:15:14.449Z,1017.5
2018-07-10T01:15:39.993Z,1017.52
2018-07-10T01:16:05.579Z,1017.5
2018-07-10T01:16:31.164Z,1017.51
2018-07-10T01:16:56.738Z,1017.5
2018-07-10T01:17:22.308Z,1017.49
2018-07-10T01:17:47.860Z,1017.48
2018-07-10T01:18:13.442Z,1017.51
2018-07-10T01:18:39.034Z,1017.51
2018-07-10T01:19:04.601Z,1017.51
2018-07-10T01:19:30.163Z,1017.49
2018-07-10T01:19:55.724Z,1017.53
2018-07-10T01:20:21.301Z,1017.51
2018-07-10T01:20:46.853Z,1017.53
2018-07-10T01:21:12.420Z,1017.53
2018-07-10T01:21:38.007Z,1017.52
2018-07-10T01:22:03.556Z,1017.53
2018-07-10T01:22:29.118Z,1017.49
2018-07-10T01:22:54.688Z,1017.49
2018-07-10T01:23:20.232Z,1017.45
2018-07-10T01:23:45.804Z,1017.42
2018-07-10T01:24:11.369Z,1017.46
2018-07-10T01:24:36.936Z,1017.44
2018-07-10T01:25:02.508Z,1017.44
2018-07-10T01:25:28.067Z,1017.43
2018-07-10T01:25:53.649Z,1017.45
2018-07-10T01:26:19.224Z,1017.39
2018-07-10T01:26:44.797Z,1017.41
2018-07-10T01:27:10.380Z,1017.43
2018-07-10T01:27:35.947Z,1017.39
2018-07-10T01:28:01.556Z,1017.4
2018-07-10T01:28:27.123Z,1017.44
2018-07-10T01:28:52.704Z,1017.41
2018-07-10T01:29:18.262Z,1017.39
2018-07-10T01:29:43.840Z,1017.39
2018-07-10T01:30:09.471Z,1017.39
2018-07-10T01:30:35.044Z,1017.38
2018-07-10T01:31:00.647Z,1017.39
2018-07-10T01:31:26.201Z,1017.42
2018-07-10T01:31:51.787Z,1017.38
2018-07-10T01:32:17.356Z,1017.43
2018-07-10T01:32:42.948Z,1017.41
2018-07-10T01:33:08.519Z,1017.4
2018-07-10T01:33:34.102Z,1017.36
2018-07-10T01:33:59.649Z,1017.39
2018-07-10T01:34:25.236Z,1017.38
2018-07-10T01:34:50.842Z,1017.42
2018-07-10T01:35:16.395Z,1017.4
2018-07-10T01:35:41.945Z,1017.38
2018-07-10T01:36:07.528Z,1017.41
2018-07-10T01:36:33.124Z,1017.34
2018-07-10T01:36:58.668Z,1017.34
2018-07-10T01:37:24.220Z,1017.34
2018-07-10T01:37:49.788Z,1017.38
2018-07-10T01:38:15.355Z,1017.34
2018-07-10T01:38:40.918Z,1017.3
2018-07-10T01:39:06.506Z,1017.28
2018-07-10T01:39:32.097Z,1017.32
2018-07-10T01:39:57.670Z,1017.29
2018-07-10T01:40:23.284Z,1017.26
2018-07-10T01:40:48.815Z,1017.23
2018-07-10T01:41:14.383Z,1017.27
2018-07-10T01:41:39.991Z,1017.2
2018-07-10T01:42:05.549Z,1017.19
2018-07-10T01:42:31.129Z,1017.18
2018-07-10T01:42:56.698Z,1017.19
2018-07-10T01:43:22.331Z,1017.16
2018-07-10T01:43:47.893Z,1017.18
2018-07-10T01:44:13.467Z,1017.17
2018-07-10T01:44:39.025Z,1017.18
2018-07-10T01:45:04.579Z,1017.16
2018-07-10T01:45:30.167Z,1017.2
2018-07-10T01:45:55.736Z,1017.18
2018-07-10T01:46:21.316Z,1017.19
2018-07-10T01:46:46.901Z,1017.13
2018-07-10T01:47:12.453Z,1017.11
2018-07-10T01:47:38.033Z,1017.13
2018-07-10T01:48:03.597Z,1017.16
2018-07-10T01:48:29.185Z,1017.12
2018-07-10T01:48:54.751Z,1017.08
2018-07-10T01:49:20.309Z,1017.07
2018-07-10T01:49:45.891Z,1017.07
2018-07-10T01:50:11.471Z,1017.05
2018-07-10T01:50:37.043Z,1017.07
2018-07-10T01:51:02.619Z,1017.05
2018-07-10T01:51:28.217Z,1017.07
2018-07-10T01:51:53.789Z,1017.05
2018-07-10T01:52:19.354Z,1017.07
2018-07-10T01:52:44.915Z,1017.07
2018-07-10T01:53:10.502Z,1017.07
2018-07-10T01:53:36.080Z,1017.02
2018-07-10T01:54:01.689Z,1017.04
2018-07-10T01:54:27.264Z,1017.03
2018-07-10T01:54:52.837Z,1017.06
2018-07-10T01:55:18.399Z,1016.98
2018-07-10T01:55:43.987Z,1017.02
2018-07-10T01:56:09.557Z,1017.05
2018-07-10T01:56:35.145Z,1017.03
2018-07-10T01:57:00.689Z,1017.04
2018-07-10T01:57:26.263Z,1017.06
2018-07-10T01:57:51.845Z,1017.04
2018-07-10T01:58:17.427Z,1017.02
2018-07-10T01:58:42.995Z,1017.03
2018-07-10T01:59:08.575Z,1016.97
2018-07-10T01:59:34.141Z,1017.05
2018-07-10T01:59:59.712Z,1017.01
2018-07-10T02:00:25.277Z,1017.03
2018-07-10T02:00:50.922Z,1016.96
2018-07-10T02:01:16.483Z,1016.99
2018-07-10T02:01:42.077Z,1016.97
2018-07-10T02:02:07.648Z,1016.98
2018-07-10T02:02:33.218Z,1016.95
2018-07-10T02:02:58.782Z,1016.96
2018-07-10T02:03:24.373Z,1016.96
2018-07-10T02:03:49.961Z,1016.95
2018-07-10T02:04:15.529Z,1016.95
2018-07-10T02:04:41.103Z,1016.95
2018-07-10T02:05:06.652Z,1016.96
2018-07-10T02:05:32.234Z,1016.94
2018-07-10T02:05:57.799Z,1016.9
2018-07-10T02:06:23.376Z,1016.92
2018-07-10T02:06:48.933Z,1016.93
2018-07-10T02:07:14.500Z,1016.91
2018-07-10T02:07:40.113Z,1016.92
2018-07-10T02:08:05.692Z,1016.91
2018-07-10T02:08:31.273Z,1016.85
2018-07-10T02:08:56.870Z,1016.92
2018-07-10T02:09:22.446Z,1016.92
2018-07-10T02:09:48.015Z,1016.91
2018-07-10T02:10:13.581Z,1016.9
2018-07-10T02:10:39.167Z,1016.96
2018-07-10T02:11:04.725Z,1016.91
2018-07-10T02:11:30.291Z,1016.9
2018-07-10T02:11:55.860Z,1016.89
2018-07-10T02:12:21.416Z,1016.88
2018-07-10T02:12:46.983Z,1016.87
2018-07-10T02:13:12.596Z,1016.88
2018-07-10T02:13:38.160Z,1016.86
2018-07-10T02:14:03.808Z,1016.86
2018-07-10T02:14:29.290Z,1016.85
2018-07-10T02:14:54.861Z,1016.87
2018-07-10T02:15:20.456Z,1016.82
2018-07-10T02:15:46.007Z,1016.75
2018-07-10T02:16:11.585Z,1016.81
2018-07-10T02:16:37.149Z,1016.83
2018-07-10T02:17:02.725Z,1016.79
2018-07-10T02:17:28.286Z,1016.8
2018-07-10T02:17:53.867Z,1016.75
2018-07-10T02:18:19.482Z,1016.79
2018-07-10T02:18:45.009Z,1016.75
2018-07-10T02:19:10.583Z,1016.78
2018-07-10T02:19:36.188Z,1016.74
2018-07-10T02:20:01.729Z,1016.72
2018-07-10T02:20:27.306Z,1016.67
2018-07-10T02:20:52.859Z,1016.69
2018-07-10T02:21:18.433Z,1016.67
2018-07-10T02:21:44.017Z,1016.68
2018-07-10T02:22:09.592Z,1016.67
2018-07-10T02:22:35.184Z,1016.68
2018-07-10T02:23:00.786Z,1016.6
2018-07-10T02:23:26.343Z,1016.58
2018-07-10T02:23:51.931Z,1016.6
2018-07-10T02:24:17.502Z,1016.58
2018-07-10T02:24:43.045Z,1016.54
2018-07-10T02:25:08.614Z,1016.62
2018-07-10T02:25:34.188Z,1016.58
2018-07-10T02:25:59.760Z,1016.64
2018-07-10T02:26:25.362Z,1016.63
2018-07-10T02:26:50.940Z,1016.63
2018-07-10T02:27:16.512Z,1016.61
2018-07-10T02:27:42.082Z,1016.63
2018-07-10T02:28:07.638Z,1016.62
2018-07-10T02:28:33.214Z,1016.59
2018-07-10T02:28:58.791Z,1016.62
2018-07-10T02:29:24.358Z,1016.59
2018-07-10T02:29:49.939Z,1016.59
2018-07-10T02:30:15.492Z,1016.59
2018-07-10T02:30:41.080Z,1016.56
2018-07-10T02:31:06.654Z,1016.56
2018-07-10T02:31:32.208Z,1016.55
2018-07-10T02:31:57.778Z,1016.55
2018-07-10T02:32:23.354Z,1016.57
2018-07-10T02:32:48.931Z,1016.51
2018-07-10T02:33:14.497Z,1016.53
2018-07-10T02:33:40.067Z,1016.53
2018-07-10T02:34:05.637Z,1016.54
2018-07-10T02:34:31.210Z,1016.53
2018-07-10T02:34:56.778Z,1016.48
2018-07-10T02:35:22.356Z,1016.52
2018-07-10T02:35:47.904Z,1016.49
2018-07-10T02:36:13.541Z,1016.54
2018-07-10T02:36:39.106Z,1016.51
2018-07-10T02:37:04.681Z,1016.49
2018-07-10T02:37:30.249Z,1016.48
2018-07-10T02:37:55.787Z,1016.5
2018-07-10T02:38:21.346Z,1016.5
2018-07-10T02:38:46.941Z,1016.45
2018-07-10T02:39:12.523Z,1016.43
2018-07-10T02:39:38.118Z,1016.44
2018-07-10T02:40:03.635Z,1016.41
2018-07-10T02:40:29.230Z,1016.43
2018-07-10T02:40:54.793Z,1016.45
2018-07-10T02:41:20.375Z,1016.43
2018-07-10T02:41:45.950Z,1016.43
2018-07-10T02:42:11.520Z,1016.43
2018-07-10T02:42:37.088Z,1016.4
2018-07-10T02:43:02.659Z,1016.47
2018-07-10T02:43:28.227Z,1016.43
2018-07-10T02:43:53.799Z,1016.39
2018-07-10T02:44:19.362Z,1016.42
2018-07-10T02:44:44.962Z,1016.43
2018-07-10T02:45:10.526Z,1016.43
2018-07-10T02:45:36.098Z,1016.41
2018-07-10T02:46:01.663Z,1016.42
2018-07-10T02:46:27.236Z,1016.41
2018-07-10T02:46:52.799Z,1016.43
2018-07-10T02:47:18.372Z,1016.43
2018-07-10T02:47:43.930Z,1016.4
2018-07-10T02:48:09.533Z,1016.4
2018-07-10T02:48:35.097Z,1016.4
2018-07-10T02:49:00.671Z,1016.41
2018-07-10T02:49:26.230Z,1016.36
2018-07-10T02:49:51.786Z,1016.34
2018-07-10T02:50:17.365Z,1016.37
2018-07-10T02:50:42.929Z,1016.34
2018-07-10T02:51:08.502Z,1016.3
2018-07-10T02:51:34.061Z,1016.33
2018-07-10T02:51:59.636Z,1016.27
2018-07-10T02:52:25.225Z,1016.3
2018-07-10T02:52:50.769Z,1016.3
2018-07-10T02:53:16.318Z,1016.21
2018-07-10T02:53:41.877Z,1016.29
2018-07-10T02:54:07.441Z,1016.26
2018-07-10T02:54:33.004Z,1016.23
2018-07-10T02:54:58.581Z,1016.25
2018-07-10T02:55:24.198Z,1016.25
2018-07-10T02:55:49.746Z,1016.15
2018-07-10T02:56:15.321Z,1016.21
2018-07-10T02:56:40.903Z,1016.22
2018-07-10T02:57:06.467Z,1016.24
2018-07-10T02:57:32.039Z,1016.26
2018-07-10T02:57:57.650Z,1016.23
2018-07-10T02:58:23.219Z,1016.24
2018-07-10T02:58:48.824Z,1016.29
2018-07-10T02:59:14.396Z,1016.25
2018-07-10T02:59:39.944Z,1016.21
2018-07-10T03:00:05.513Z,1016.2
2018-07-10T03:00:31.062Z,1016.25
2018-07-10T03:00:56.634Z,1016.27
2018-07-10T03:01:22.186Z,1016.24
2018-07-10T03:01:47.743Z,1016.25
2018-07-10T03:02:13.337Z,1016.22
2018-07-10T03:02:38.934Z,1016.21
2018-07-10T03:03:04.500Z,1016.21
2018-07-10T03:03:30.079Z,1016.2
2018-07-10T03:03:55.623Z,1016.22
2018-07-10T03:04:21.188Z,1016.22
2018-07-10T03:04:46.769Z,1016.2
2018-07-10T03:05:12.346Z,1016.19
2018-07-10T03:05:37.961Z,1016.2
2018-07-10T03:06:03.513Z,1016.13
2018-07-10T03:06:29.065Z,1016.17
2018-07-10T03:06:54.629Z,1016.14
2018-07-10T03:07:20.206Z,1016.14
2018-07-10T03:07:45.799Z,1016.15
2018-07-10T03:08:11.364Z,1016.13
2018-07-10T03:08:36.940Z,1016.15
2018-07-10T03:09:02.514Z,1016.16
2018-07-10T03:09:28.072Z,1016.16
2018-07-10T03:09:53.644Z,1016.19
2018-07-10T03:10:19.217Z,1016.17
2018-07-10T03:10:44.804Z,1016.16
2018-07-10T03:11:10.389Z,1016.13
2018-07-10T03:11:35.963Z,1016.1
2018-07-10T03:12:01.525Z,1016.13
2018-07-10T03:12:27.094Z,1016.09
2018-07-10T03:12:52.669Z,1016.03
2018-07-10T03:13:18.230Z,1016.09
2018-07-10T03:13:43.792Z,1016.07
2018-07-10T03:14:09.347Z,1016.14
2018-07-10T03:14:34.929Z,1016.11
2018-07-10T03:15:00.495Z,1016.11
2018-07-10T03:15:26.045Z,1016.09
2018-07-10T03:15:51.628Z,1016.09
2018-07-10T03:16:17.201Z,1016.09
2018-07-10T03:16:42.767Z,1016.09
2018-07-10T03:17:08.345Z,1016.1
2018-07-10T03:17:33.925Z,1016.06
2018-07-10T03:17:59.484Z,1016.04
2018-07-10T03:18:25.080Z,1016.04
2018-07-10T03:18:50.627Z,1016.02
2018-07-10T03:19:16.198Z,1016.06
2018-07-10T03:19:41.803Z,1016.02
2018-07-10T03:20:07.423Z,1016.04
2018-07-10T03:20:32.997Z,1016.05
2018-07-10T03:20:58.589Z,1016
2018-07-10T03:21:24.170Z,1016.01
2018-07-10T03:21:49.732Z,1016.02
2018-07-10T03:22:15.305Z,1015.97
2018-07-10T03:22:40.896Z,1016.01
2018-07-10T03:23:06.475Z,1015.98
2018-07-10T03:23:32.026Z,1015.97
2018-07-10T03:23:57.599Z,1015.97
2018-07-10T03:24:23.181Z,1015.97
2018-07-10T03:24:48.796Z,1016.02
2018-07-10T03:25:14.396Z,1015.95
2018-07-10T03:25:40.001Z,1016
2018-07-10T03:26:05.549Z,1016
2018-07-10T03:26:31.125Z,1015.96
2018-07-10T03:26:56.696Z,1015.99
2018-07-10T03:27:22.259Z,1015.97
2018-07-10T03:27:47.820Z,1015.98
2018-07-10T03:28:13.396Z,1015.96
2018-07-10T03:28:38.976Z,1015.93
2018-07-10T03:29:04.551Z,1015.86
2018-07-10T03:29:30.115Z,1015.95
2018-07-10T03:29:55.687Z,1015.9
2018-07-10T03:30:21.253Z,1015.96
2018-07-10T03:30:46.812Z,1015.94
2018-07-10T03:31:12.390Z,1015.92
2018-07-10T03:31:37.994Z,1015.92
2018-07-10T03:32:03.593Z,1015.91
2018-07-10T03:32:29.163Z,1015.93
2018-07-10T03:32:54.727Z,1015.89
2018-07-10T03:33:20.323Z,1015.87
2018-07-10T03:33:45.899Z,1015.87
2018-07-10T03:34:11.496Z,1015.85
2018-07-10T03:34:37.066Z,1015.9
2018-07-10T03:35:02.628Z,1015.91
2018-07-10T03:35:28.212Z,1015.86
2018-07-10T03:35:53.768Z,1015.83
2018-07-10T03:36:19.339Z,1015.81
2018-07-10T03:36:44.899Z,1015.8
2018-07-10T03:37:10.485Z,1015.82
2018-07-10T03:37:36.064Z,1015.79
2018-07-10T03:38:01.619Z,1015.75
2018-07-10T03:38:27.177Z,1015.76
2018-07-10T03:38:52.762Z,1015.77
2018-07-10T03:39:18.323Z,1015.77
2018-07-10T03:39:43.884Z,1015.79
2018-07-10T03:40:09.460Z,1015.75
2018-07-10T03:40:35.010Z,1015.85
2018-07-10T03:41:00.605Z,1015.79
2018-07-10T03:41:26.169Z,1015.77
2018-07-10T03:41:51.740Z,1015.74
2018-07-10T03:42:17.319Z,1015.78
2018-07-10T03:42:42.905Z,1015.74
2018-07-10T03:43:08.479Z,1015.82
2018-07-10T03:43:34.052Z,1015.79
2018-07-10T03:43:59.626Z,1015.86
2018-07-10T03:44:25.202Z,1015.78
2018-07-10T03:44:50.846Z,1015.77
2018-07-10T03:45:16.355Z,1015.86
2018-07-10T03:45:41.937Z,1015.78
2018-07-10T03:46:07.494Z,1015.86
2018-07-10T03:46:33.051Z,1015.78
2018-07-10T03:46:58.602Z,1015.83
2018-07-10T03:47:24.150Z,1015.82
2018-07-10T03:47:49.700Z,1015.73
2018-07-10T03:48:15.271Z,1015.77
2018-07-10T03:48:40.843Z,1015.73
2018-07-10T03:49:06.395Z,1015.71
2018-07-10T03:49:31.998Z,1015.74
2018-07-10T03:49:57.571Z,1015.71
2018-07-10T03:50:23.130Z,1015.73
2018-07-10T03:50:48.743Z,1015.74
2018-07-10T03:51:14.307Z,1015.78
2018-07-10T03:51:39.872Z,1015.8
2018-07-10T03:52:05.480Z,1015.73
2018-07-10T03:52:31.047Z,1015.75
2018-07-10T03:52:56.602Z,1015.78
2018-07-10T03:53:22.168Z,1015.71
2018-07-10T03:53:47.741Z,1015.71
2018-07-10T03:54:13.305Z,1015.73
2018-07-10T03:54:38.868Z,1015.74
2018-07-10T03:55:04.441Z,1015.71
2018-07-10T03:55:30.085Z,1015.66
2018-07-10T03:55:55.673Z,1015.65
2018-07-10T03:56:21.243Z,1015.61
2018-07-10T03:56:46.793Z,1015.66
2018-07-10T03:57:12.392Z,1015.68
2018-07-10T03:57:37.964Z,1015.61
2018-07-10T03:58:03.556Z,1015.59
2018-07-10T03:58:29.116Z,1015.66
2018-07-10T03:58:54.688Z,1015.66
2018-07-10T03:59:20.261Z,1015.63
2018-07-10T03:59:45.824Z,1015.7
2018-07-10T04:00:11.396Z,1015.64
2018-07-10T04:00:36.966Z,1015.67
2018-07-10T04:01:02.550Z,1015.65
2018-07-10T04:01:28.123Z,1015.65
2018-07-10T04:01:53.684Z,1015.64
2018-07-10T04:02:19.261Z,1015.64
2018-07-10T04:02:44.842Z,1015.65
2018-07-10T04:03:10.390Z,1015.72
2018-07-10T04:03:35.963Z,1015.67
2018-07-10T04:04:01.560Z,1015.69
2018-07-10T04:04:27.136Z,1015.62
2018-07-10T04:04:52.688Z,1015.65
2018-07-10T04:05:18.283Z,1015.68
2018-07-10T04:05:43.859Z,1015.67
2018-07-10T04:06:09.434Z,1015.66
2018-07-10T04:06:34.998Z,1015.64
2018-07-10T04:07:00.558Z,1015.64
2018-07-10T04:07:26.139Z,1015.61
2018-07-10T04:07:51.705Z,1015.61
2018-07-10T04:08:17.260Z,1015.62
2018-07-10T04:08:42.854Z,1015.64
2018-07-10T04:09:08.505Z,1015.6
2018-07-10T04:09:34.041Z,1015.62
2018-07-10T04:09:59.601Z,1015.66
2018-07-10T04:10:25.177Z,1015.61
2018-07-10T04:10:50.762Z,1015.65
2018-07-10T04:11:16.361Z,1015.64
2018-07-10T04:11:42.032Z,1015.66
2018-07-10T04:12:07.556Z,1015.68
2018-07-10T04:12:33.119Z,1015.64
2018-07-10T04:12:58.697Z,1015.71
2018-07-10T04:13:24.251Z,1015.64
2018-07-10T04:13:49.842Z,1015.64
2018-07-10T04:14:15.394Z,1015.67
2018-07-10T04:14:40.953Z,1015.61
2018-07-10T04:15:06.526Z,1015.62
2018-07-10T04:15:32.077Z,1015.63
2018-07-10T04:15:57.659Z,1015.67
2018-07-10T04:16:23.226Z,1015.63
2018-07-10T04:16:48.776Z,1015.64
2018-07-10T04:17:14.344Z,1015.66
2018-07-10T04:17:39.920Z,1015.63
2018-07-10T04:18:05.493Z,1015.62
2018-07-10T04:18:31.052Z,1015.6
2018-07-10T04:18:56.637Z,1015.61
2018-07-10T04:19:22.203Z,1015.61
2018-07-10T04:19:47.765Z,1015.57
2018-07-10T04:20:13.344Z,1015.58
2018-07-10T04:20:38.901Z,1015.62
2018-07-10T04:21:04.479Z,1015.58
2018-07-10T04:21:30.072Z,1015.6
2018-07-10T04:21:55.644Z,1015.61
2018-07-10T04:22:21.228Z,1015.55
2018-07-10T04:22:46.804Z,1015.61
2018-07-10T04:23:12.376Z,1015.6
2018-07-10T04:23:37.945Z,1015.58
2018-07-10T04:24:03.543Z,1015.53
2018-07-10T04:24:29.128Z,1015.54
2018-07-10T04:24:54.704Z,1015.55
2018-07-10T04:25:20.271Z,1015.52
2018-07-10T04:25:45.875Z,1015.53
2018-07-10T04:26:11.448Z,1015.55
2018-07-10T04:26:36.986Z,1015.57
2018-07-10T04:27:02.549Z,1015.55
2018-07-10T04:27:28.109Z,1015.55
2018-07-10T04:27:53.670Z,1015.6
2018-07-10T04:28:19.244Z,1015.55
2018-07-10T04:28:44.805Z,1015.58
2018-07-10T04:29:10.361Z,1015.53
2018-07-10T04:29:35.942Z,1015.51
2018-07-10T04:30:01.525Z,1015.56
2018-07-10T04:30:27.123Z,1015.55
2018-07-10T04:30:52.673Z,1015.54
2018-07-10T04:31:18.240Z,1015.55
2018-07-10T04:31:43.843Z,1015.55
2018-07-10T04:32:09.427Z,1015.53
2018-07-10T04:32:34.978Z,1015.54
2018-07-10T04:33:00.554Z,1015.55
2018-07-10T04:33:26.160Z,1015.51
2018-07-10T04:33:51.738Z,1015.54
2018-07-10T04:34:17.344Z,1015.49
2018-07-10T04:34:42.878Z,1015.48
2018-07-10T04:35:08.454Z,1015.51
2018-07-10T04:35:34.044Z,1015.49
2018-07-10T04:35:59.627Z,1015.5
2018-07-10T04:36:25.204Z,1015.43
2018-07-10T04:36:50.779Z,1015.47
2018-07-10T04:37:16.350Z,1015.53
2018-07-10T04:37:41.935Z,1015.46
2018-07-10T04:38:07.496Z,1015.44
2018-07-10T04:38:33.057Z,1015.48
2018-07-10T04:38:58.654Z,1015.47
2018-07-10T04:39:24.216Z,1015.44
2018-07-10T04:39:49.780Z,1015.46
2018-07-10T04:40:15.369Z,1015.47
2018-07-10T04:40:40.926Z,1015.46
2018-07-10T04:41:06.513Z,1015.48
2018-07-10T04:41:32.083Z,1015.46
2018-07-10T04:41:57.659Z,1015.41
2018-07-10T04:42:23.269Z,1015.45
2018-07-10T04:42:48.822Z,1015.44
2018-07-10T04:43:14.421Z,1015.44
2018-07-10T04:43:40.042Z,1015.44
2018-07-10T04:44:05.619Z,1015.46
2018-07-10T04:44:31.211Z,1015.47
2018-07-10T04:44:56.762Z,1015.44
2018-07-10T04:45:22.327Z,1015.43
2018-07-10T04:45:47.918Z,1015.41
2018-07-10T04:46:13.511Z,1015.38
2018-07-10T04:46:39.102Z,1015.41
2018-07-10T04:47:04.658Z,1015.42
2018-07-10T04:47:30.223Z,1015.4
2018-07-10T04:47:55.795Z,1015.42
2018-07-10T04:48:21.370Z,1015.42
2018-07-10T04:48:46.943Z,1015.42
2018-07-10T04:49:12.526Z,1015.36
2018-07-10T04:49:38.089Z,1015.33
2018-07-10T04:50:03.646Z,1015.38
2018-07-10T04:50:29.227Z,1015.43
2018-07-10T04:50:54.797Z,1015.35
2018-07-10T04:51:20.368Z,1015.34
2018-07-10T04:51:45.916Z,1015.37
2018-07-10T04:52:11.508Z,1015.33
2018-07-10T04:52:37.061Z,1015.35
2018-07-10T04:53:02.610Z,1015.33
2018-07-10T04:53:28.181Z,1015.36
2018-07-10T04:53:53.728Z,1015.39
2018-07-10T04:54:19.331Z,1015.37
2018-07-10T04:54:44.851Z,1015.33
2018-07-10T04:55:10.402Z,1015.37
2018-07-10T04:55:35.992Z,1015.35
2018-07-10T04:56:01.482Z,1015.4
2018-07-10T04:56:27.002Z,1015.36
2018-07-10T04:56:52.579Z,1015.36
2018-07-10T04:57:18.150Z,1015.39
2018-07-10T04:57:43.700Z,1015.37
2018-07-10T04:58:09.245Z,1015.41
2018-07-10T04:58:34.868Z,1015.38
2018-07-10T04:59:00.519Z,1015.39
2018-07-10T04:59:26.153Z,1015.43
2018-07-10T04:59:51.765Z,1015.37
2018-07-10T05:00:17.381Z,1015.35
2018-07-10T05:00:42.955Z,1015.39
2018-07-10T05:01:08.539Z,1015.36
2018-07-10T05:01:34.130Z,1015.39
2018-07-10T05:01:59.695Z,1015.35
2018-07-10T05:02:25.225Z,1015.33
2018-07-10T05:02:50.812Z,1015.35
2018-07-10T05:03:16.381Z,1015.37
2018-07-10T05:03:41.979Z,1015.31
2018-07-10T05:04:07.631Z,1015.35
2018-07-10T05:04:33.202Z,1015.32
2018-07-10T05:04:58.717Z,1015.37
2018-07-10T05:05:24.303Z,1015.33
2018-07-10T05:05:49.936Z,1015.3
2018-07-10T05:06:15.539Z,1015.32
2018-07-10T05:06:41.110Z,1015.3
2018-07-10T05:07:06.700Z,1015.34
2018-07-10T05:07:32.246Z,1015.34
2018-07-10T05:07:57.881Z,1015.33
2018-07-10T05:08:23.522Z,1015.32
2018-07-10T05:08:49.072Z,1015.32
2018-07-10T05:09:14.690Z,1015.3
2018-07-10T05:09:40.341Z,1015.28
2018-07-10T05:10:05.887Z,1015.32
2018-07-10T05:10:31.537Z,1015.28